createdAt,value
2018-07-05T16:16:13.301Z,19.40
2018-07-05T16:18:55.591Z,19.30
2018-07-05T16:21:35.293Z,19.40
2018-07-05T16:24:15.281Z,19.30
2018-07-05T16:26:55.346Z,19.30
2018-07-05T16:29:35.124Z,19.30
2018-07-05T16:32:14.664Z,19.20
2018-07-05T16:35:12.837Z,19.40
2018-07-05T16:37:56.227Z,19.30
2018-07-05T16:40:35.811Z,19.10
2018-07-05T16:43:15.669Z,19.00
2018-07-05T16:45:56.251Z,19.10
2018-07-05T16:48:38.513Z,19.20
2018-07-05T16:51:17.924Z,19.30
2018-07-05T16:59:05.390Z,19.40
2018-07-05T17:01:46.697Z,19.40
2018-07-05T17:04:34.072Z,19.50
2018-07-05T17:07:16.908Z,19.40
2018-07-05T17:12:43.568Z,19.50
2018-07-05T17:15:23.224Z,19.50
2018-07-05T17:18:03.052Z,19.40
2018-07-05T17:20:42.782Z,19.50
2018-07-05T17:23:22.504Z,19.50
2018-07-05T17:28:35.380Z,19.40
2018-07-05T17:31:15.116Z,19.30
2018-07-05T17:33:55.048Z,19.20
2018-07-05T17:36:36.550Z,19.20
2018-07-05T17:39:17.209Z,19.20
2018-07-05T17:41:56.865Z,19.00
2018-07-05T17:44:36.324Z,19.00
2018-07-05T17:47:15.939Z,19.00
2018-07-05T17:49:55.776Z,18.80
2018-07-05T17:52:35.179Z,18.80
2018-07-05T17:55:14.703Z,18.60
2018-07-05T17:57:54.333Z,18.60
2018-07-05T18:00:33.817Z,18.50
2018-07-05T18:03:13.485Z,18.50
2018-07-05T18:05:53.148Z,18.40
2018-07-05T18:08:32.735Z,18.40
2018-07-05T18:11:12.306Z,18.40
2018-07-05T18:13:52.009Z,18.40
2018-07-05T18:16:31.510Z,18.30
2018-07-05T18:19:11.060Z,18.30
2018-07-05T18:21:50.518Z,18.30
2018-07-05T18:24:30.006Z,18.30
2018-07-05T18:29:47.959Z,18.30
2018-07-05T18:32:32.625Z,18.30
2018-07-05T18:35:16.459Z,18.20
2018-07-05T18:40:40.656Z,18.20
2018-07-05T18:43:20.261Z,18.20
2018-07-05T18:46:00.102Z,18.20
2018-07-05T18:48:40.074Z,18.20
2018-07-05T18:51:24.573Z,18.20
2018-07-05T18:54:08.435Z,18.10
2018-07-05T18:56:48.326Z,18.10
2018-07-05T18:59:27.977Z,18.00
2018-07-05T19:02:07.605Z,17.90
2018-07-05T19:04:47.300Z,17.90
2018-07-05T19:07:26.933Z,17.90
2018-07-05T19:10:06.601Z,17.90
2018-07-05T19:12:46.087Z,17.90
2018-07-05T19:15:25.729Z,17.90
2018-07-05T19:18:05.380Z,17.90
2018-07-05T19:20:44.957Z,17.90
2018-07-05T19:23:24.595Z,17.90
2018-07-05T19:26:38.168Z,17.90
2018-07-05T19:29:17.660Z,17.90
2018-07-05T19:31:57.173Z,17.90
2018-07-05T19:34:36.653Z,17.90
2018-07-05T19:37:17.155Z,17.80
2018-07-05T19:40:00.676Z,17.80
2018-07-05T19:42:42.682Z,17.80
2018-07-05T19:45:24.060Z,17.80
2018-07-05T19:48:04.785Z,17.70
2018-07-05T19:50:45.309Z,17.70
2018-07-05T19:53:24.949Z,17.70
2018-07-05T19:56:04.608Z,17.70
2018-07-05T19:58:50.985Z,17.70
2018-07-05T20:01:30.432Z,17.70
2018-07-05T20:04:10.136Z,17.70
2018-07-05T20:06:49.785Z,17.70
2018-07-05T20:09:29.306Z,17.60
2018-07-05T20:12:09.441Z,17.60
2018-07-05T20:14:48.936Z,17.60
2018-07-05T20:17:28.476Z,17.60
2018-07-05T20:20:08.212Z,17.60
2018-07-05T20:22:47.775Z,17.60
2018-07-05T20:25:27.435Z,17.60
2018-07-05T20:28:07.367Z,17.60
2018-07-05T20:30:47.956Z,17.60
2018-07-05T20:33:29.239Z,17.60
2018-07-05T20:36:08.821Z,17.60
2018-07-05T20:38:50.218Z,17.60
2018-07-05T20:41:29.638Z,17.60
2018-07-05T20:46:58.808Z,17.60
2018-07-05T20:49:38.312Z,17.60
2018-07-05T20:52:17.985Z,17.70
2018-07-05T20:54:57.489Z,17.60
2018-07-05T20:57:37.217Z,17.60
2018-07-05T21:00:16.581Z,17.60
2018-07-05T21:02:56.193Z,17.60
2018-07-05T21:05:35.826Z,17.60
2018-07-05T21:10:49.853Z,17.70
2018-07-05T21:13:29.422Z,17.70
2018-07-05T21:16:08.988Z,17.70
2018-07-05T21:18:49.622Z,17.70
2018-07-05T21:21:29.242Z,17.60
2018-07-05T21:24:09.726Z,17.70
2018-07-05T21:26:49.313Z,17.60
2018-07-05T21:29:29.938Z,17.60
2018-07-05T21:32:10.055Z,17.60
2018-07-05T21:34:49.502Z,17.60
2018-07-05T21:37:33.298Z,17.50
2018-07-05T21:40:13.856Z,17.60
2018-07-05T21:42:53.421Z,17.60
2018-07-05T21:45:33.080Z,17.60
2018-07-05T21:48:12.633Z,17.60
2018-07-05T21:50:52.281Z,17.60
2018-07-05T21:53:31.893Z,17.60
2018-07-05T21:56:11.421Z,17.60
2018-07-05T21:58:53.059Z,17.60
2018-07-05T22:01:40.940Z,17.50
2018-07-05T22:04:20.581Z,17.60
2018-07-05T22:07:00.075Z,17.50
2018-07-05T22:09:40.024Z,17.50
2018-07-05T22:12:20.713Z,17.40
2018-07-05T22:15:02.096Z,17.50
2018-07-05T22:17:46.845Z,17.50
2018-07-05T22:20:33.170Z,17.50
2018-07-05T22:23:18.870Z,17.50
2018-07-05T22:26:04.783Z,17.50
2018-07-05T22:28:50.317Z,17.50
2018-07-05T22:31:33.554Z,17.50
2018-07-05T22:34:14.926Z,17.60
2018-07-05T22:39:28.290Z,17.60
2018-07-05T22:42:07.973Z,17.60
2018-07-05T22:44:47.433Z,17.60
2018-07-05T22:47:27.275Z,17.60
2018-07-05T22:50:06.924Z,17.50
2018-07-05T22:52:46.530Z,17.60
2018-07-05T22:55:31.906Z,17.60
2018-07-05T22:58:11.445Z,17.60
2018-07-05T23:00:50.959Z,17.50
